Climax, New York
Current Conditions -  °F | °C
As of 1:16 PM on Monday 22 Dec 2014 (Local Time) from KALB Reporting Station
Overcast Overcast  
Wind Chill: 30°   Ceiling: 4000
Heat Index: 34°   Visibility: 10mi
Dew Point: 26°   Wind: 5mph
Humidity: 73%   Direction: 40°NE
Pressure: 30.29"   Gusts: NA
Location:  42.37°N, 73.85°W
Report Text: KALB 221816Z 04004KT 10SM FEW013 SCT019 OVC040 01/M03 A3029 RMK AO2 SNB08E13 SCT V BKN P0000 T00111033 $
Loading
Personal Weather Stations






























Interactive Weather Map New forecast layout! Learn more

10-Day Weather Forecast

Advertisements
Track Severe Weather on mobile